createdAt,value
2018-06-05T00:00:37.970Z,53.40
2018-06-05T00:03:06.825Z,53.50
2018-06-05T00:05:35.643Z,52.50
2018-06-05T00:08:04.384Z,51.50
2018-06-05T00:10:33.152Z,52.30
2018-06-05T00:13:01.848Z,53.50
2018-06-05T00:15:31.464Z,51.10
2018-06-05T00:18:00.288Z,51.20
2018-06-05T00:20:29.179Z,51.30
2018-06-05T00:22:57.992Z,55.20
2018-06-05T00:25:26.790Z,56.20
2018-06-05T00:27:55.547Z,56.50
2018-06-05T00:30:25.505Z,56.50
2018-06-05T00:32:54.446Z,55.60
2018-06-05T00:35:23.174Z,56.30
2018-06-05T00:37:52.112Z,55.00
2018-06-05T00:40:21.178Z,55.20
2018-06-05T00:42:50.095Z,56.30
2018-06-05T00:45:19.209Z,56.00
2018-06-05T00:47:47.944Z,56.60
2018-06-05T00:50:16.839Z,56.00
2018-06-05T00:52:45.558Z,55.60
2018-06-05T00:55:14.275Z,55.50
2018-06-05T00:57:42.995Z,55.70
2018-06-05T01:00:11.652Z,54.20
2018-06-05T01:02:40.275Z,55.10
2018-06-05T01:05:08.993Z,54.80
2018-06-05T01:07:37.695Z,55.80
2018-06-05T01:10:06.577Z,55.60
2018-06-05T01:12:35.341Z,55.20
2018-06-05T01:15:04.204Z,55.20
2018-06-05T01:17:32.912Z,54.70
2018-06-05T01:20:01.591Z,54.30
2018-06-05T01:22:30.710Z,55.10
2018-06-05T01:25:00.524Z,55.00
2018-06-05T01:27:29.316Z,55.00
2018-06-05T01:29:58.040Z,55.80
2018-06-05T01:32:26.855Z,56.00
2018-06-05T01:34:55.491Z,56.40
2018-06-05T01:37:24.338Z,56.40
2018-06-05T01:39:53.209Z,56.70
2018-06-05T01:42:22.048Z,56.70
2018-06-05T01:44:51.032Z,57.00
2018-06-05T01:47:19.781Z,55.60
2018-06-05T01:49:48.704Z,54.60
2018-06-05T01:52:17.411Z,56.20
2018-06-05T01:54:46.131Z,56.30
2018-06-05T01:57:14.959Z,56.40
2018-06-05T01:59:43.839Z,56.20
2018-06-05T02:02:12.707Z,56.40
2018-06-05T02:04:41.442Z,56.90
2018-06-05T02:07:10.118Z,57.30
2018-06-05T02:09:39.086Z,57.90
2018-06-05T02:12:07.856Z,58.00
2018-06-05T02:14:36.680Z,58.20
2018-06-05T02:17:05.510Z,58.10
2018-06-05T02:19:34.323Z,57.20
2018-06-05T02:22:03.065Z,58.20
2018-06-05T02:24:31.826Z,57.70
2018-06-05T02:27:00.658Z,57.80
2018-06-05T02:29:29.486Z,58.60
2018-06-05T02:31:58.312Z,56.30
2018-06-05T02:34:27.146Z,56.00
2018-06-05T02:36:57.031Z,56.80
2018-06-05T02:39:26.352Z,56.60
2018-06-05T02:41:55.018Z,56.70
2018-06-05T02:44:23.868Z,57.40
2018-06-05T02:46:52.628Z,57.60
2018-06-05T02:51:49.833Z,58.20
2018-06-05T02:54:18.582Z,58.70
2018-06-05T02:56:47.484Z,58.60
2018-06-05T02:59:16.219Z,58.50
2018-06-05T03:01:44.947Z,59.30
2018-06-05T03:04:14.192Z,59.50
2018-06-05T03:06:42.914Z,60.00
2018-06-05T03:09:11.655Z,59.90
2018-06-05T03:11:40.505Z,60.00
2018-06-05T03:14:09.450Z,58.40
2018-06-05T03:16:38.234Z,59.40
2018-06-05T03:19:07.072Z,59.40
2018-06-05T03:21:35.760Z,59.80
2018-06-05T03:24:04.602Z,60.00
2018-06-05T03:26:33.489Z,59.70
2018-06-05T03:29:02.386Z,60.50
2018-06-05T03:31:31.207Z,60.10
2018-06-05T03:33:59.935Z,60.80
2018-06-05T03:38:57.022Z,59.80
2018-06-05T03:43:54.266Z,61.10
2018-06-05T03:46:23.064Z,60.80
2018-06-05T03:48:52.592Z,61.20
2018-06-05T03:51:21.388Z,61.00
2018-06-05T03:53:50.127Z,60.70
2018-06-05T03:56:19.069Z,60.90
2018-06-05T03:58:47.912Z,62.00
2018-06-05T04:01:16.711Z,61.80
2018-06-05T04:03:45.644Z,62.00
2018-06-05T04:06:14.424Z,61.20
2018-06-05T04:11:11.709Z,61.30
2018-06-05T04:13:40.523Z,63.00
2018-06-05T04:16:09.848Z,61.70
2018-06-05T04:18:38.857Z,62.20
2018-06-05T04:21:07.542Z,62.30
2018-06-05T04:23:36.337Z,62.00
2018-06-05T04:26:05.172Z,62.00
2018-06-05T04:28:33.979Z,62.00
2018-06-05T04:31:02.872Z,61.00
2018-06-05T04:33:31.593Z,60.50
2018-06-05T04:36:00.504Z,61.10
2018-06-05T04:38:29.343Z,61.30
2018-06-05T04:40:58.229Z,61.10
2018-06-05T04:43:27.234Z,60.70
2018-06-05T04:45:56.022Z,61.40
2018-06-05T04:48:24.933Z,61.60
2018-06-05T04:50:53.684Z,62.00
2018-06-05T04:53:22.524Z,62.80
2018-06-05T04:55:51.382Z,61.60
2018-06-05T04:58:20.236Z,60.70
2018-06-05T05:00:50.145Z,60.90
2018-06-05T05:03:19.258Z,61.40
2018-06-05T05:05:47.936Z,61.60
2018-06-05T05:08:16.916Z,60.80
2018-06-05T05:10:45.881Z,60.90
2018-06-05T05:13:15.032Z,60.80
2018-06-05T05:15:44.646Z,61.00
2018-06-05T05:18:13.779Z,60.50
2018-06-05T05:20:42.604Z,61.10
2018-06-05T05:23:11.324Z,61.20
2018-06-05T05:25:40.067Z,60.40
2018-06-05T05:28:08.909Z,60.20
2018-06-05T05:30:37.833Z,60.20
2018-06-05T05:33:08.298Z,60.90
2018-06-05T05:35:37.043Z,59.90
2018-06-05T05:38:05.816Z,59.70
2018-06-05T05:40:34.473Z,59.60
2018-06-05T05:43:03.385Z,59.50
2018-06-05T05:45:32.464Z,59.80
2018-06-05T05:50:30.560Z,61.00
2018-06-05T05:52:59.262Z,60.30
2018-06-05T05:57:56.459Z,59.90
2018-06-05T06:00:25.395Z,59.20
2018-06-05T06:02:54.395Z,60.40
2018-06-05T06:05:23.239Z,59.80
2018-06-05T06:07:52.275Z,60.20
2018-06-05T06:10:21.076Z,60.00
2018-06-05T06:12:52.969Z,59.80
2018-06-05T06:15:22.472Z,60.10
2018-06-05T06:17:51.991Z,60.70
2018-06-05T06:20:21.941Z,59.40
2018-06-05T06:22:51.761Z,58.80
2018-06-05T06:25:21.996Z,57.80
2018-06-05T06:27:51.231Z,58.30
2018-06-05T06:30:28.241Z,56.80
2018-06-05T06:33:08.039Z,57.10
2018-06-05T06:35:37.507Z,57.30
2018-06-05T06:38:06.335Z,57.40
2018-06-05T06:40:35.058Z,56.80
2018-06-05T06:43:04.704Z,56.10
2018-06-05T06:45:33.468Z,54.80
2018-06-05T06:48:02.256Z,54.50
2018-06-05T06:50:31.394Z,54.80
2018-06-05T06:53:00.588Z,55.00
2018-06-05T06:55:29.643Z,54.30
2018-06-05T06:57:58.445Z,54.30
2018-06-05T07:00:28.142Z,54.50
2018-06-05T07:03:00.403Z,53.70
2018-06-05T07:05:30.076Z,53.80
2018-06-05T07:07:59.734Z,53.60
2018-06-05T07:10:28.664Z,54.00
2018-06-05T07:12:57.921Z,53.70
2018-06-05T07:15:27.210Z,53.40
2018-06-05T07:17:56.063Z,52.80
2018-06-05T07:20:25.301Z,52.90
2018-06-05T07:22:54.397Z,53.50
2018-06-05T07:25:23.206Z,53.00
2018-06-05T07:27:52.139Z,53.30
2018-06-05T07:30:22.171Z,53.20
2018-06-05T07:32:50.955Z,53.80
2018-06-05T07:35:19.862Z,53.00
2018-06-05T07:37:48.582Z,53.10
2018-06-05T07:40:17.596Z,53.10
2018-06-05T07:42:46.294Z,53.30
2018-06-05T07:45:16.296Z,53.40
2018-06-05T07:47:45.496Z,53.40
2018-06-05T07:50:14.675Z,52.60
2018-06-05T07:52:43.511Z,52.90
2018-06-05T07:55:12.219Z,52.10
2018-06-05T07:57:41.634Z,51.90
2018-06-05T08:00:10.581Z,51.80
2018-06-05T08:02:40.461Z,51.60
2018-06-05T08:05:12.285Z,50.90
2018-06-05T08:07:41.903Z,51.00
2018-06-05T08:10:11.598Z,50.60
2018-06-05T08:12:40.382Z,50.50
2018-06-05T08:15:10.231Z,50.20
2018-06-05T08:17:47.554Z,49.90
2018-06-05T08:20:19.951Z,49.80
2018-06-05T08:22:53.221Z,49.20
2018-06-05T08:25:22.186Z,50.30
2018-06-05T08:27:50.892Z,50.20
2018-06-05T08:30:19.960Z,49.00
2018-06-05T08:35:17.307Z,48.80
2018-06-05T08:40:14.902Z,47.90
2018-06-05T08:42:43.686Z,48.50
2018-06-05T08:45:12.464Z,47.20
2018-06-05T08:47:41.534Z,47.50
2018-06-05T08:50:10.560Z,47.60
2018-06-05T08:55:08.472Z,46.10
2018-06-05T08:57:37.512Z,46.70
2018-06-05T09:00:06.437Z,46.30
2018-06-05T09:02:35.282Z,44.50
2018-06-05T09:05:04.162Z,42.90
2018-06-05T09:07:32.763Z,44.60
2018-06-05T09:10:02.205Z,44.90
2018-06-05T09:12:30.901Z,44.10
2018-06-05T09:14:59.613Z,43.90
2018-06-05T09:19:56.711Z,43.40
2018-06-05T09:22:25.548Z,43.70
2018-06-05T09:24:54.172Z,44.30
2018-06-05T09:27:22.918Z,44.40
2018-06-05T09:29:51.609Z,45.20
2018-06-05T09:32:20.590Z,44.00
2018-06-05T09:34:49.238Z,43.80
2018-06-05T09:37:19.045Z,41.90
2018-06-05T09:39:48.127Z,42.40
2018-06-05T09:42:17.075Z,43.10
2018-06-05T09:44:46.260Z,43.50
2018-06-05T09:47:14.993Z,43.80
2018-06-05T09:49:43.788Z,46.20
2018-06-05T09:52:12.657Z,49.00
2018-06-05T09:54:41.687Z,47.00
2018-06-05T09:57:10.472Z,46.60
2018-06-05T09:59:39.246Z,48.10
2018-06-05T10:02:40.225Z,46.40
2018-06-05T10:05:10.006Z,44.80
2018-06-05T10:07:42.509Z,46.40
2018-06-05T10:10:13.412Z,46.00
2018-06-05T10:12:42.110Z,44.70
2018-06-05T10:15:11.055Z,44.70
2018-06-05T10:17:40.169Z,45.20
2018-06-05T10:20:08.922Z,44.40
2018-06-05T10:22:40.145Z,44.10
2018-06-05T10:25:08.942Z,42.90
2018-06-05T10:28:11.271Z,43.10
2018-06-05T10:30:53.347Z,41.50
2018-06-05T10:33:45.293Z,42.10
2018-06-05T10:36:23.573Z,41.40
2018-06-05T10:38:52.656Z,40.00
2018-06-05T10:41:22.292Z,38.30
2018-06-05T10:43:52.593Z,37.80
2018-06-05T10:46:24.278Z,37.30
2018-06-05T10:48:53.754Z,37.90
2018-06-05T10:51:23.038Z,38.40
2018-06-05T10:53:53.695Z,38.80
2018-06-05T10:56:23.526Z,37.50
2018-06-05T10:58:52.489Z,36.90
2018-06-05T11:01:21.239Z,34.40
2018-06-05T11:03:50.693Z,41.10
2018-06-05T11:06:19.760Z,43.80
2018-06-05T11:08:48.578Z,46.60
2018-06-05T11:11:17.416Z,47.20
2018-06-05T11:13:46.329Z,48.60
2018-06-05T11:16:15.013Z,46.20
2018-06-05T11:18:43.722Z,48.00
2018-06-05T11:21:18.193Z,48.60
2018-06-05T11:23:47.194Z,54.50
2018-06-05T11:26:16.697Z,55.10
2018-06-05T11:28:45.585Z,55.40
2018-06-05T11:31:14.542Z,55.10
2018-06-05T11:33:43.534Z,58.30
2018-06-05T11:36:12.273Z,59.30
2018-06-05T11:38:41.215Z,62.10
2018-06-05T11:41:09.969Z,66.80
2018-06-05T11:43:39.324Z,68.30
2018-06-05T11:46:08.031Z,67.20
2018-06-05T11:48:37.087Z,71.00
2018-06-05T11:51:16.444Z,71.70
2018-06-05T11:53:45.220Z,72.70
2018-06-05T11:56:14.455Z,73.90
2018-06-05T11:58:43.550Z,77.20
2018-06-05T12:01:12.725Z,75.20
2018-06-05T12:03:42.280Z,77.70
2018-06-05T12:06:10.888Z,77.70
2018-06-05T12:08:39.844Z,76.80
2018-06-05T12:11:08.718Z,74.40
2018-06-05T12:13:38.228Z,73.80
2018-06-05T12:16:07.217Z,73.70
2018-06-05T12:18:36.255Z,74.60
2018-06-05T12:21:07.612Z,72.30
2018-06-05T12:23:36.596Z,71.30
2018-06-05T12:26:05.289Z,70.10
2018-06-05T12:28:34.747Z,69.20
2018-06-05T12:31:04.171Z,69.00
2018-06-05T12:33:32.934Z,71.10
2018-06-05T12:36:02.948Z,69.80
2018-06-05T12:38:32.331Z,71.60
2018-06-05T12:41:01.781Z,71.20
2018-06-05T12:43:50.597Z,71.10
2018-06-05T12:46:27.673Z,69.70
2018-06-05T12:49:05.636Z,70.20
2018-06-05T12:51:34.442Z,69.20
2018-06-05T12:54:03.550Z,68.00
2018-06-05T12:56:32.657Z,67.00
2018-06-05T13:02:06.518Z,65.70
2018-06-05T13:04:36.735Z,65.00
2018-06-05T13:07:06.247Z,65.60
2018-06-05T13:09:35.988Z,63.70
2018-06-05T13:12:05.058Z,65.00
2018-06-05T13:14:34.254Z,65.20
2018-06-05T13:17:03.395Z,66.00
2018-06-05T13:19:34.938Z,66.70
2018-06-05T13:22:05.094Z,66.80
2018-06-05T13:24:34.756Z,66.30
2018-06-05T13:27:05.639Z,65.60
2018-06-05T13:29:34.841Z,66.50
2018-06-05T13:32:04.270Z,64.80
2018-06-05T13:34:33.049Z,65.30
2018-06-05T13:37:07.344Z,65.00
2018-06-05T13:39:43.972Z,64.80
2018-06-05T13:42:13.666Z,64.60
2018-06-05T13:44:43.154Z,63.90
2018-06-05T13:47:19.208Z,63.10
2018-06-05T13:49:49.200Z,62.70
2018-06-05T13:52:18.276Z,62.20
2018-06-05T13:54:47.339Z,58.50
2018-06-05T13:57:16.425Z,52.40
2018-06-05T13:59:45.478Z,48.60
2018-06-05T14:02:17.869Z,44.90
2018-06-05T14:04:47.770Z,44.10
2018-06-05T14:07:16.545Z,42.10
2018-06-05T14:09:45.643Z,41.20
2018-06-05T14:12:15.280Z,39.90
2018-06-05T14:14:44.132Z,38.00
2018-06-05T14:17:12.982Z,36.60
2018-06-05T14:19:41.893Z,34.70
2018-06-05T14:22:10.886Z,32.70
2018-06-05T14:24:40.242Z,29.10
2018-06-05T14:27:09.093Z,28.80
2018-06-05T14:29:37.986Z,27.20
2018-06-05T14:32:06.860Z,26.30
2018-06-05T14:34:35.835Z,27.50
2018-06-05T14:37:04.857Z,27.00
2018-06-05T14:41:02.932Z,26.40
2018-06-05T14:43:32.030Z,26.10
2018-06-05T14:46:08.258Z,25.70
2018-06-05T14:48:44.077Z,26.00
2018-06-05T14:51:13.356Z,25.70
2018-06-05T14:53:42.490Z,25.20
2018-06-05T14:56:12.223Z,25.80
2018-06-05T14:58:49.494Z,25.80
2018-06-05T15:01:25.268Z,25.80
2018-06-05T15:04:00.819Z,25.80
2018-06-05T15:06:29.899Z,27.70
2018-06-05T15:08:58.951Z,28.20
2018-06-05T15:11:27.706Z,29.10
2018-06-05T15:13:56.539Z,28.40
2018-06-05T15:16:25.411Z,28.90
2018-06-05T15:18:54.435Z,28.80
2018-06-05T15:21:23.519Z,29.80
2018-06-05T15:23:52.473Z,31.50
2018-06-05T15:26:21.356Z,34.40
2018-06-05T15:28:50.898Z,34.70
2018-06-05T15:31:19.916Z,35.50
2018-06-05T15:33:48.840Z,36.00
2018-06-05T15:36:17.782Z,36.30
2018-06-05T15:38:47.579Z,37.30
2018-06-05T15:41:16.641Z,38.30
2018-06-05T15:43:46.158Z,38.80
2018-06-05T15:46:15.099Z,37.90
2018-06-05T15:48:43.936Z,37.70
2018-06-05T15:51:17.681Z,38.50
2018-06-05T15:53:46.652Z,38.50
2018-06-05T15:56:15.489Z,39.20
2018-06-05T15:58:44.274Z,40.30
2018-06-05T16:01:13.201Z,40.50
2018-06-05T16:03:42.065Z,40.10
2018-06-05T16:06:10.850Z,43.70
2018-06-05T16:08:39.662Z,45.00
2018-06-05T16:11:08.724Z,45.60
2018-06-05T16:13:37.544Z,45.80
2018-06-05T16:16:07.014Z,45.90
2018-06-05T16:18:35.986Z,46.00
2018-06-05T16:21:05.504Z,47.10
2018-06-05T16:23:34.915Z,48.80
2018-06-05T16:26:03.897Z,49.20
2018-06-05T16:28:32.949Z,50.00
2018-06-05T16:31:01.819Z,50.40
2018-06-05T16:33:30.530Z,51.30
2018-06-05T16:35:59.483Z,52.40
2018-06-05T16:38:28.209Z,51.60
2018-06-05T16:40:57.928Z,52.90
2018-06-05T16:43:26.766Z,52.50
2018-06-05T16:45:55.697Z,50.80
2018-06-05T16:48:25.428Z,52.80
2018-06-05T16:50:54.197Z,53.60
2018-06-05T16:53:23.042Z,53.90
2018-06-05T16:55:51.954Z,54.60
2018-06-05T16:58:21.691Z,54.60
2018-06-05T17:00:50.502Z,54.50
2018-06-05T17:03:19.260Z,54.40
2018-06-05T17:05:48.114Z,54.80
2018-06-05T17:08:21.971Z,54.70
2018-06-05T17:10:50.891Z,54.40
2018-06-05T17:13:19.718Z,54.30
2018-06-05T17:15:48.467Z,54.80
2018-06-05T17:18:17.259Z,54.80
2018-06-05T17:20:46.455Z,54.40
2018-06-05T17:23:15.254Z,54.40
2018-06-05T17:25:44.541Z,54.40
2018-06-05T17:28:13.420Z,54.40
2018-06-05T17:30:43.559Z,54.40
2018-06-05T17:33:12.678Z,54.30
2018-06-05T17:35:41.457Z,53.70
2018-06-05T17:38:10.287Z,54.00
2018-06-05T17:40:39.044Z,54.30
2018-06-05T17:43:07.973Z,54.30
2018-06-05T17:45:36.886Z,54.20
2018-06-05T17:48:05.961Z,55.00
2018-06-05T17:50:34.986Z,55.20
2018-06-05T17:53:04.087Z,55.80
2018-06-05T17:55:32.959Z,56.50
2018-06-05T17:58:02.098Z,56.30
2018-06-05T18:00:32.102Z,57.70
2018-06-05T18:03:00.964Z,55.90
2018-06-05T18:05:29.709Z,55.50
2018-06-05T18:07:58.515Z,55.80
2018-06-05T18:10:27.188Z,56.50
2018-06-05T18:12:56.029Z,57.20
2018-06-05T18:15:24.973Z,57.50
2018-06-05T18:17:53.943Z,58.00
2018-06-05T18:20:22.870Z,58.10
2018-06-05T18:22:51.623Z,57.80
2018-06-05T18:25:20.462Z,57.90
2018-06-05T18:27:49.380Z,57.50
2018-06-05T18:30:18.481Z,57.20
2018-06-05T18:32:47.326Z,57.40
2018-06-05T18:35:16.039Z,56.80
2018-06-05T18:37:44.737Z,56.60
2018-06-05T18:40:13.454Z,56.20
2018-06-05T18:42:42.297Z,56.20
2018-06-05T18:45:11.040Z,55.50
2018-06-05T18:47:39.790Z,55.40
2018-06-05T18:50:08.744Z,55.40
2018-06-05T18:52:37.553Z,54.80
2018-06-05T18:55:06.847Z,54.20
2018-06-05T18:57:35.923Z,54.90
2018-06-05T19:00:05.347Z,55.00
2018-06-05T19:02:34.311Z,55.10
2018-06-05T19:05:03.009Z,55.20
2018-06-05T19:07:32.018Z,55.50
2018-06-05T19:10:01.718Z,55.50
2018-06-05T19:12:30.646Z,55.40
2018-06-05T19:14:59.624Z,55.70
2018-06-05T19:17:28.353Z,56.20
2018-06-05T19:21:26.476Z,56.00
2018-06-05T19:24:02.286Z,55.90
2018-06-05T19:26:37.407Z,54.60
2018-06-05T19:29:07.975Z,55.80
2018-06-05T19:31:36.841Z,56.20
2018-06-05T19:34:05.565Z,55.70
2018-06-05T19:36:34.383Z,56.20
2018-06-05T19:39:03.318Z,56.50
2018-06-05T19:41:32.281Z,56.90
2018-06-05T19:44:01.343Z,56.60
2018-06-05T19:46:30.685Z,56.50
2018-06-05T19:48:59.464Z,56.50
2018-06-05T19:51:34.581Z,56.60
2018-06-05T19:54:10.477Z,56.60
2018-06-05T19:56:39.641Z,58.60
2018-06-05T19:59:08.407Z,59.80
2018-06-05T20:01:37.421Z,61.00
2018-06-05T20:04:07.150Z,61.80
2018-06-05T20:06:36.014Z,62.80
2018-06-05T20:09:07.182Z,63.00
2018-06-05T20:11:35.930Z,63.40
2018-06-05T20:14:04.784Z,63.50
2018-06-05T20:16:34.580Z,64.40
2018-06-05T20:19:03.412Z,66.90
2018-06-05T20:21:32.123Z,66.90
2018-06-05T20:24:01.260Z,67.90
2018-06-05T20:26:30.491Z,70.10
2018-06-05T20:29:00.143Z,70.40
2018-06-05T20:31:29.635Z,72.30
2018-06-05T20:33:58.627Z,73.30
2018-06-05T20:36:27.375Z,73.60
2018-06-05T20:38:56.102Z,72.80
2018-06-05T20:41:25.423Z,74.10
2018-06-05T20:43:54.851Z,75.20
2018-06-05T20:46:23.559Z,74.60
2018-06-05T20:48:53.284Z,76.30
2018-06-05T20:51:21.990Z,76.60
2018-06-05T20:53:50.716Z,76.00
2018-06-05T20:56:19.824Z,76.50
2018-06-05T20:58:48.636Z,77.10
2018-06-05T21:01:17.579Z,77.70
2018-06-05T21:03:46.328Z,77.30
2018-06-05T21:06:15.225Z,77.90
2018-06-05T21:08:43.922Z,78.20
2018-06-05T21:11:12.771Z,79.20
2018-06-05T21:13:41.459Z,78.70
2018-06-05T21:16:10.762Z,78.00
2018-06-05T21:18:39.524Z,79.00
2018-06-05T21:21:08.976Z,77.60
2018-06-05T21:23:38.476Z,76.80
2018-06-05T21:26:07.720Z,75.40
2018-06-05T21:28:36.968Z,75.90
2018-06-05T21:31:05.926Z,74.10
2018-06-05T21:33:34.864Z,74.80
2018-06-05T21:36:03.675Z,74.10
2018-06-05T21:38:32.512Z,75.40
2018-06-05T21:41:01.247Z,75.40
2018-06-05T21:43:30.090Z,74.50
2018-06-05T21:45:58.878Z,76.10
2018-06-05T21:48:27.873Z,75.50
2018-06-05T21:50:56.825Z,74.50
2018-06-05T21:53:25.624Z,76.00
2018-06-05T21:55:54.692Z,75.90
2018-06-05T21:58:23.397Z,76.80
2018-06-05T22:00:52.235Z,75.70
2018-06-05T22:03:21.786Z,75.50
2018-06-05T22:05:50.463Z,75.80
2018-06-05T22:08:19.226Z,75.80
2018-06-05T22:10:48.062Z,75.60
2018-06-05T22:13:16.867Z,75.40
2018-06-05T22:15:45.609Z,75.80
2018-06-05T22:18:14.274Z,75.30
2018-06-05T22:20:43.163Z,75.90
2018-06-05T22:23:12.116Z,75.70
2018-06-05T22:25:40.863Z,78.30
2018-06-05T22:28:09.746Z,76.10
2018-06-05T22:30:38.620Z,76.70
2018-06-05T22:33:07.327Z,76.60
2018-06-05T22:35:36.173Z,77.40
2018-06-05T22:38:05.736Z,77.40
2018-06-05T22:40:34.541Z,76.60
2018-06-05T22:43:03.193Z,77.50
2018-06-05T22:45:32.141Z,75.70
2018-06-05T22:48:00.924Z,76.70
2018-06-05T22:50:30.386Z,76.60
2018-06-05T22:52:59.224Z,76.00
2018-06-05T22:55:28.620Z,74.80
2018-06-05T22:57:57.296Z,74.70
2018-06-05T23:00:32.323Z,74.60
2018-06-05T23:03:01.290Z,74.80
2018-06-05T23:05:30.161Z,74.50
2018-06-05T23:07:59.034Z,74.80
2018-06-05T23:10:27.908Z,74.10
2018-06-05T23:12:56.695Z,74.20
2018-06-05T23:15:26.102Z,74.60
2018-06-05T23:17:54.961Z,74.00
2018-06-05T23:20:23.614Z,74.70
2018-06-05T23:22:52.234Z,75.00
2018-06-05T23:25:21.030Z,74.90
2018-06-05T23:27:49.861Z,75.50
2018-06-05T23:30:18.688Z,74.70
2018-06-05T23:32:47.384Z,74.10
2018-06-05T23:35:16.079Z,73.70
2018-06-05T23:37:44.774Z,75.10
2018-06-05T23:40:13.485Z,74.50
2018-06-05T23:42:42.367Z,74.70
2018-06-05T23:45:11.037Z,73.90
2018-06-05T23:47:39.760Z,73.50
2018-06-05T23:50:08.624Z,73.30
2018-06-05T23:52:37.371Z,73.80
2018-06-05T23:55:06.395Z,74.40
2018-06-05T23:57:35.072Z,73.40
